Accueil
METAR-TAF:

METAR-TAF

Aéroports :

Aéroport de Shoreham

Brighton, Angleterre

latitude: 50-50N, longitude: 000-17W, altitude: 2 m

Observation

Le bulletin a été fait il y a 12 heures et 0 minutes, à 17:50 UTC
Vent 6 kt de nord-ouest
Température 11°C
Humidité 62%
Pression 1024 hPa
Visibilité 10 km ou plus
Quelques nuages à une hauteur de 2500 ft

METAR: EGKA 231750Z 31006KT 9999 FEW025 11/04 Q1024

Heure: 06:50 (05:50 UTC)

Prévision

Le bulletin a été fait il y a 15 heures et 48 minutes, à 14:02 UTC
Prévision valable du 23 à 15 UTC au 23 à 18 UTC
Vent 12 kt de nord/nord-ouest
Visibilité 10 km ou plus
Nuages épars à une hauteur de 2500 ft

TAF: EGKA 231402Z 2315/2318 33012KT 9999 SCT025

Observations et prévisions météorologiques de plus de 4000 aéroports (messages METAR et TAF).

Les stations disponibles sont représentées par des disques jaunes et rouges sur la carte.

Passer la souris dessus pour voir le nom de la station.

Cliquer dessus pour voir les observations et prévisions météorologiques.

Pour changer de carte: cliquez sur les boutons verts avec une croix noire pour zoomer, sur le bouton vert avec un tiret pour effectuer un zoom arrière, ou sur les flèches vertes pour les cartes adjacentes.


METAR-TAF: